sensor_id;sensor_type;location;lat;lon;timestamp;P1;durP1;ratioP1;P2;durP2;ratioP2
6255;SDS011;3161;48.794;9.784;2024-03-08T00:00:08;22.93;;;13.77;;
6255;SDS011;3161;48.794;9.784;2024-03-08T00:02:40;22.10;;;13.07;;
6255;SDS011;3161;48.794;9.784;2024-03-08T00:05:08;19.07;;;12.40;;
6255;SDS011;3161;48.794;9.784;2024-03-08T00:07:36;21.73;;;12.57;;
6255;SDS011;3161;48.794;9.784;2024-03-08T00:10:05;23.43;;;13.27;;
6255;SDS011;3161;48.794;9.784;2024-03-08T00:12:35;18.63;;;12.93;;
6255;SDS011;3161;48.794;9.784;2024-03-08T00:15:04;20.33;;;13.00;;
6255;SDS011;3161;48.794;9.784;2024-03-08T00:17:32;21.93;;;14.23;;
6255;SDS011;3161;48.794;9.784;2024-03-08T00:20:00;18.57;;;12.30;;
6255;SDS011;3161;48.794;9.784;2024-03-08T00:22:29;21.50;;;13.10;;
6255;SDS011;3161;48.794;9.784;2024-03-08T00:24:57;19.83;;;12.50;;
6255;SDS011;3161;48.794;9.784;2024-03-08T00:27:24;21.93;;;13.00;;
6255;SDS011;3161;48.794;9.784;2024-03-08T00:29:51;17.30;;;11.53;;
6255;SDS011;3161;48.794;9.784;2024-03-08T00:32:19;19.40;;;12.93;;
6255;SDS011;3161;48.794;9.784;2024-03-08T00:37:44;18.67;;;12.00;;
6255;SDS011;3161;48.794;9.784;2024-03-08T00:40:14;23.03;;;12.17;;
6255;SDS011;3161;48.794;9.784;2024-03-08T00:42:42;18.47;;;12.20;;
6255;SDS011;3161;48.794;9.784;2024-03-08T00:45:10;21.17;;;13.13;;
6255;SDS011;3161;48.794;9.784;2024-03-08T00:47:38;22.80;;;12.70;;
6255;SDS011;3161;48.794;9.784;2024-03-08T00:50:07;21.03;;;13.47;;
6255;SDS011;3161;48.794;9.784;2024-03-08T00:52:35;20.50;;;12.17;;
6255;SDS011;3161;48.794;9.784;2024-03-08T00:55:04;20.60;;;12.10;;
6255;SDS011;3161;48.794;9.784;2024-03-08T00:57:33;25.30;;;13.37;;
6255;SDS011;3161;48.794;9.784;2024-03-08T01:00:02;18.37;;;12.10;;
6255;SDS011;3161;48.794;9.784;2024-03-08T01:02:32;18.57;;;12.07;;
6255;SDS011;3161;48.794;9.784;2024-03-08T01:05:01;15.27;;;11.27;;
6255;SDS011;3161;48.794;9.784;2024-03-08T01:07:31;21.57;;;12.70;;
6255;SDS011;3161;48.794;9.784;2024-03-08T01:09:58;17.67;;;11.17;;
6255;SDS011;3161;48.794;9.784;2024-03-08T01:12:26;20.93;;;12.13;;
6255;SDS011;3161;48.794;9.784;2024-03-08T01:14:55;16.90;;;11.23;;
6255;SDS011;3161;48.794;9.784;2024-03-08T01:17:24;20.77;;;13.20;;
6255;SDS011;3161;48.794;9.784;2024-03-08T01:19:52;19.07;;;12.07;;
6255;SDS011;3161;48.794;9.784;2024-03-08T01:22:20;16.40;;;11.97;;
6255;SDS011;3161;48.794;9.784;2024-03-08T01:24:48;21.77;;;11.53;;
6255;SDS011;3161;48.794;9.784;2024-03-08T01:27:16;20.43;;;12.17;;
6255;SDS011;3161;48.794;9.784;2024-03-08T01:29:43;17.50;;;11.03;;
6255;SDS011;3161;48.794;9.784;2024-03-08T01:32:11;20.27;;;12.27;;
6255;SDS011;3161;48.794;9.784;2024-03-08T01:34:38;18.43;;;11.27;;
6255;SDS011;3161;48.794;9.784;2024-03-08T01:37:06;22.10;;;12.23;;
6255;SDS011;3161;48.794;9.784;2024-03-08T01:39:33;14.67;;;9.97;;
6255;SDS011;3161;48.794;9.784;2024-03-08T01:42:01;20.20;;;11.70;;
6255;SDS011;3161;48.794;9.784;2024-03-08T01:44:28;18.53;;;12.20;;
6255;SDS011;3161;48.794;9.784;2024-03-08T01:46:57;18.70;;;11.57;;
6255;SDS011;3161;48.794;9.784;2024-03-08T01:49:24;17.23;;;11.53;;
6255;SDS011;3161;48.794;9.784;2024-03-08T01:51:54;18.73;;;11.63;;
6255;SDS011;3161;48.794;9.784;2024-03-08T01:54:25;19.07;;;11.57;;
6255;SDS011;3161;48.794;9.784;2024-03-08T01:56:53;19.40;;;10.97;;
6255;SDS011;3161;48.794;9.784;2024-03-08T01:59:21;18.97;;;12.13;;
6255;SDS011;3161;48.794;9.784;2024-03-08T02:01:49;19.83;;;11.20;;
6255;SDS011;3161;48.794;9.784;2024-03-08T02:04:17;17.07;;;10.90;;
6255;SDS011;3161;48.794;9.784;2024-03-08T02:06:47;18.67;;;10.97;;
6255;SDS011;3161;48.794;9.784;2024-03-08T02:09:14;19.93;;;11.23;;
6255;SDS011;3161;48.794;9.784;2024-03-08T02:11:43;17.23;;;11.70;;
6255;SDS011;3161;48.794;9.784;2024-03-08T02:14:11;21.43;;;12.10;;
6255;SDS011;3161;48.794;9.784;2024-03-08T02:16:40;18.67;;;11.90;;
6255;SDS011;3161;48.794;9.784;2024-03-08T02:19:07;16.47;;;11.13;;
6255;SDS011;3161;48.794;9.784;2024-03-08T02:21:35;16.63;;;11.00;;
6255;SDS011;3161;48.794;9.784;2024-03-08T02:24:04;15.63;;;10.43;;
6255;SDS011;3161;48.794;9.784;2024-03-08T02:26:32;14.40;;;9.90;;
6255;SDS011;3161;48.794;9.784;2024-03-08T02:29:00;22.43;;;11.73;;
6255;SDS011;3161;48.794;9.784;2024-03-08T02:31:28;16.53;;;10.50;;
6255;SDS011;3161;48.794;9.784;2024-03-08T02:33:56;20.83;;;10.10;;
6255;SDS011;3161;48.794;9.784;2024-03-08T02:36:23;17.50;;;11.53;;
6255;SDS011;3161;48.794;9.784;2024-03-08T02:38:51;18.20;;;10.73;;
6255;SDS011;3161;48.794;9.784;2024-03-08T02:41:18;19.37;;;10.80;;
6255;SDS011;3161;48.794;9.784;2024-03-08T02:43:46;16.07;;;10.23;;
6255;SDS011;3161;48.794;9.784;2024-03-08T02:46:13;20.63;;;10.67;;
6255;SDS011;3161;48.794;9.784;2024-03-08T02:48:41;16.73;;;10.53;;
6255;SDS011;3161;48.794;9.784;2024-03-08T02:51:08;17.90;;;10.90;;
6255;SDS011;3161;48.794;9.784;2024-03-08T02:53:36;20.27;;;10.63;;
6255;SDS011;3161;48.794;9.784;2024-03-08T02:56:04;19.23;;;11.40;;
6255;SDS011;3161;48.794;9.784;2024-03-08T02:58:33;25.57;;;12.83;;
6255;SDS011;3161;48.794;9.784;2024-03-08T03:01:01;20.60;;;11.03;;
6255;SDS011;3161;48.794;9.784;2024-03-08T03:03:29;23.47;;;12.50;;
6255;SDS011;3161;48.794;9.784;2024-03-08T03:05:56;17.07;;;10.60;;
6255;SDS011;3161;48.794;9.784;2024-03-08T03:08:24;14.93;;;10.40;;
6255;SDS011;3161;48.794;9.784;2024-03-08T03:10:51;24.10;;;12.07;;
6255;SDS011;3161;48.794;9.784;2024-03-08T03:13:19;21.93;;;12.57;;
6255;SDS011;3161;48.794;9.784;2024-03-08T03:15:46;17.97;;;11.20;;
6255;SDS011;3161;48.794;9.784;2024-03-08T03:18:14;21.33;;;12.07;;
6255;SDS011;3161;48.794;9.784;2024-03-08T03:20:41;21.73;;;12.50;;
6255;SDS011;3161;48.794;9.784;2024-03-08T03:23:10;20.27;;;12.03;;
6255;SDS011;3161;48.794;9.784;2024-03-08T03:25:39;20.53;;;13.20;;
6255;SDS011;3161;48.794;9.784;2024-03-08T03:28:07;20.20;;;11.77;;
6255;SDS011;3161;48.794;9.784;2024-03-08T03:30:36;18.87;;;10.77;;
6255;SDS011;3161;48.794;9.784;2024-03-08T03:33:05;22.97;;;12.90;;
6255;SDS011;3161;48.794;9.784;2024-03-08T03:35:35;18.93;;;11.83;;
6255;SDS011;3161;48.794;9.784;2024-03-08T03:38:03;17.80;;;10.70;;
6255;SDS011;3161;48.794;9.784;2024-03-08T03:40:34;15.47;;;10.27;;
6255;SDS011;3161;48.794;9.784;2024-03-08T03:43:02;19.50;;;11.63;;
6255;SDS011;3161;48.794;9.784;2024-03-08T03:45:30;17.83;;;10.83;;
6255;SDS011;3161;48.794;9.784;2024-03-08T03:48:09;20.70;;;11.53;;
6255;SDS011;3161;48.794;9.784;2024-03-08T03:50:35;19.13;;;11.53;;
6255;SDS011;3161;48.794;9.784;2024-03-08T03:53:03;15.83;;;11.23;;
6255;SDS011;3161;48.794;9.784;2024-03-08T03:55:32;21.23;;;12.67;;
6255;SDS011;3161;48.794;9.784;2024-03-08T03:58:00;20.67;;;11.73;;
6255;SDS011;3161;48.794;9.784;2024-03-08T04:00:28;19.27;;;11.30;;
6255;SDS011;3161;48.794;9.784;2024-03-08T04:02:56;21.93;;;12.10;;
6255;SDS011;3161;48.794;9.784;2024-03-08T04:05:25;19.93;;;11.20;;
6255;SDS011;3161;48.794;9.784;2024-03-08T04:07:53;18.70;;;12.10;;
6255;SDS011;3161;48.794;9.784;2024-03-08T04:10:20;19.33;;;12.10;;
6255;SDS011;3161;48.794;9.784;2024-03-08T04:12:48;20.73;;;11.40;;
6255;SDS011;3161;48.794;9.784;2024-03-08T04:15:15;22.00;;;11.97;;
6255;SDS011;3161;48.794;9.784;2024-03-08T04:17:43;20.03;;;12.23;;
6255;SDS011;3161;48.794;9.784;2024-03-08T04:20:11;18.93;;;12.23;;
6255;SDS011;3161;48.794;9.784;2024-03-08T04:22:40;19.30;;;12.43;;
6255;SDS011;3161;48.794;9.784;2024-03-08T04:25:09;20.30;;;12.33;;
6255;SDS011;3161;48.794;9.784;2024-03-08T04:27:36;18.57;;;12.07;;
6255;SDS011;3161;48.794;9.784;2024-03-08T04:30:04;20.47;;;12.17;;
6255;SDS011;3161;48.794;9.784;2024-03-08T04:32:35;21.00;;;12.37;;
6255;SDS011;3161;48.794;9.784;2024-03-08T04:35:03;18.77;;;12.53;;
6255;SDS011;3161;48.794;9.784;2024-03-08T04:37:31;20.67;;;12.20;;
6255;SDS011;3161;48.794;9.784;2024-03-08T04:39:59;19.10;;;11.43;;
6255;SDS011;3161;48.794;9.784;2024-03-08T04:42:27;17.23;;;12.03;;
6255;SDS011;3161;48.794;9.784;2024-03-08T04:44:58;19.27;;;11.67;;
6255;SDS011;3161;48.794;9.784;2024-03-08T04:47:25;19.57;;;11.20;;
6255;SDS011;3161;48.794;9.784;2024-03-08T04:49:53;19.83;;;11.60;;
6255;SDS011;3161;48.794;9.784;2024-03-08T04:52:22;19.63;;;11.13;;
6255;SDS011;3161;48.794;9.784;2024-03-08T04:54:49;20.17;;;12.07;;
6255;SDS011;3161;48.794;9.784;2024-03-08T04:57:17;19.57;;;11.80;;
6255;SDS011;3161;48.794;9.784;2024-03-08T04:59:44;17.77;;;11.60;;
6255;SDS011;3161;48.794;9.784;2024-03-08T05:02:12;20.73;;;12.80;;
6255;SDS011;3161;48.794;9.784;2024-03-08T05:04:39;21.47;;;13.27;;
6255;SDS011;3161;48.794;9.784;2024-03-08T05:07:08;23.53;;;12.90;;
6255;SDS011;3161;48.794;9.784;2024-03-08T05:09:35;21.87;;;12.63;;
6255;SDS011;3161;48.794;9.784;2024-03-08T05:12:03;18.73;;;12.90;;
6255;SDS011;3161;48.794;9.784;2024-03-08T05:14:31;19.53;;;12.27;;
6255;SDS011;3161;48.794;9.784;2024-03-08T05:17:00;21.73;;;13.27;;
6255;SDS011;3161;48.794;9.784;2024-03-08T05:19:28;22.43;;;13.67;;
6255;SDS011;3161;48.794;9.784;2024-03-08T05:21:56;20.03;;;13.57;;
6255;SDS011;3161;48.794;9.784;2024-03-08T05:24:23;21.20;;;14.13;;
6255;SDS011;3161;48.794;9.784;2024-03-08T05:26:51;23.37;;;13.30;;
6255;SDS011;3161;48.794;9.784;2024-03-08T05:29:18;24.13;;;13.20;;
6255;SDS011;3161;48.794;9.784;2024-03-08T05:31:49;21.47;;;12.63;;
6255;SDS011;3161;48.794;9.784;2024-03-08T05:34:21;23.43;;;13.03;;
6255;SDS011;3161;48.794;9.784;2024-03-08T05:36:49;20.57;;;12.60;;
6255;SDS011;3161;48.794;9.784;2024-03-08T05:39:17;26.57;;;13.13;;
6255;SDS011;3161;48.794;9.784;2024-03-08T05:41:45;25.60;;;13.63;;
6255;SDS011;3161;48.794;9.784;2024-03-08T05:44:13;20.87;;;12.20;;
6255;SDS011;3161;48.794;9.784;2024-03-08T05:46:42;25.10;;;13.53;;
6255;SDS011;3161;48.794;9.784;2024-03-08T05:49:10;19.73;;;12.73;;
6255;SDS011;3161;48.794;9.784;2024-03-08T05:51:38;23.10;;;13.00;;
6255;SDS011;3161;48.794;9.784;2024-03-08T05:54:07;22.40;;;13.73;;
6255;SDS011;3161;48.794;9.784;2024-03-08T05:56:36;23.33;;;13.70;;
6255;SDS011;3161;48.794;9.784;2024-03-08T05:59:06;18.67;;;12.50;;
6255;SDS011;3161;48.794;9.784;2024-03-08T06:01:35;26.40;;;13.27;;
6255;SDS011;3161;48.794;9.784;2024-03-08T06:04:03;19.40;;;12.33;;
6255;SDS011;3161;48.794;9.784;2024-03-08T06:06:31;22.27;;;12.77;;
6255;SDS011;3161;48.794;9.784;2024-03-08T06:08:58;19.03;;;11.63;;
6255;SDS011;3161;48.794;9.784;2024-03-08T06:11:26;22.73;;;13.50;;
6255;SDS011;3161;48.794;9.784;2024-03-08T06:13:54;21.03;;;12.33;;
6255;SDS011;3161;48.794;9.784;2024-03-08T06:16:23;22.13;;;13.97;;
6255;SDS011;3161;48.794;9.784;2024-03-08T06:18:51;21.97;;;13.27;;
6255;SDS011;3161;48.794;9.784;2024-03-08T06:21:18;23.87;;;13.53;;
6255;SDS011;3161;48.794;9.784;2024-03-08T06:23:47;23.33;;;13.37;;
6255;SDS011;3161;48.794;9.784;2024-03-08T06:26:14;23.93;;;14.03;;
6255;SDS011;3161;48.794;9.784;2024-03-08T06:28:42;21.63;;;13.43;;
6255;SDS011;3161;48.794;9.784;2024-03-08T06:31:10;18.53;;;12.73;;
6255;SDS011;3161;48.794;9.784;2024-03-08T06:33:37;21.77;;;13.37;;
6255;SDS011;3161;48.794;9.784;2024-03-08T06:36:05;24.97;;;13.77;;
6255;SDS011;3161;48.794;9.784;2024-03-08T06:38:33;21.23;;;12.93;;
6255;SDS011;3161;48.794;9.784;2024-03-08T06:41:00;24.33;;;13.97;;
6255;SDS011;3161;48.794;9.784;2024-03-08T06:43:29;22.07;;;13.93;;
6255;SDS011;3161;48.794;9.784;2024-03-08T06:45:58;19.97;;;12.57;;
6255;SDS011;3161;48.794;9.784;2024-03-08T06:48:26;21.73;;;12.77;;
6255;SDS011;3161;48.794;9.784;2024-03-08T06:50:55;17.30;;;12.73;;
6255;SDS011;3161;48.794;9.784;2024-03-08T06:53:23;22.37;;;12.67;;
6255;SDS011;3161;48.794;9.784;2024-03-08T06:55:50;22.77;;;14.20;;
6255;SDS011;3161;48.794;9.784;2024-03-08T06:58:18;26.40;;;14.17;;
6255;SDS011;3161;48.794;9.784;2024-03-08T07:00:45;23.63;;;13.80;;
6255;SDS011;3161;48.794;9.784;2024-03-08T07:03:15;20.87;;;13.00;;
6255;SDS011;3161;48.794;9.784;2024-03-08T07:05:43;19.60;;;12.57;;
6255;SDS011;3161;48.794;9.784;2024-03-08T07:08:10;21.63;;;13.40;;
6255;SDS011;3161;48.794;9.784;2024-03-08T07:10:40;21.20;;;13.00;;
6255;SDS011;3161;48.794;9.784;2024-03-08T07:13:10;19.83;;;12.23;;
6255;SDS011;3161;48.794;9.784;2024-03-08T07:15:38;22.23;;;13.30;;
6255;SDS011;3161;48.794;9.784;2024-03-08T07:18:05;18.67;;;12.07;;
6255;SDS011;3161;48.794;9.784;2024-03-08T07:20:34;18.83;;;12.17;;
6255;SDS011;3161;48.794;9.784;2024-03-08T07:23:03;23.18;;;15.05;;
6255;SDS011;3161;48.794;9.784;2024-03-08T07:25:30;22.93;;;13.83;;
6255;SDS011;3161;48.794;9.784;2024-03-08T07:27:58;21.00;;;13.37;;
6255;SDS011;3161;48.794;9.784;2024-03-08T07:30:26;21.13;;;12.77;;
6255;SDS011;3161;48.794;9.784;2024-03-08T07:33:11;20.60;;;12.10;;
6255;SDS011;3161;48.794;9.784;2024-03-08T07:35:39;17.90;;;11.67;;
6255;SDS011;3161;48.794;9.784;2024-03-08T07:38:09;20.80;;;13.40;;
6255;SDS011;3161;48.794;9.784;2024-03-08T07:40:43;21.20;;;12.47;;
6255;SDS011;3161;48.794;9.784;2024-03-08T07:43:09;21.97;;;12.23;;
6255;SDS011;3161;48.794;9.784;2024-03-08T07:45:40;20.17;;;12.03;;
6255;SDS011;3161;48.794;9.784;2024-03-08T07:48:07;21.30;;;12.20;;
6255;SDS011;3161;48.794;9.784;2024-03-08T07:50:37;20.03;;;12.73;;
6255;SDS011;3161;48.794;9.784;2024-03-08T07:53:05;19.37;;;12.60;;
6255;SDS011;3161;48.794;9.784;2024-03-08T07:55:34;18.17;;;11.77;;
6255;SDS011;3161;48.794;9.784;2024-03-08T07:58:02;18.13;;;12.13;;
6255;SDS011;3161;48.794;9.784;2024-03-08T08:00:30;22.20;;;12.43;;
6255;SDS011;3161;48.794;9.784;2024-03-08T08:02:58;20.83;;;13.23;;
6255;SDS011;3161;48.794;9.784;2024-03-08T08:05:27;18.80;;;12.40;;
6255;SDS011;3161;48.794;9.784;2024-03-08T08:07:54;16.80;;;12.10;;
6255;SDS011;3161;48.794;9.784;2024-03-08T08:10:22;22.00;;;11.63;;
6255;SDS011;3161;48.794;9.784;2024-03-08T08:12:50;19.20;;;12.27;;
6255;SDS011;3161;48.794;9.784;2024-03-08T08:15:18;20.63;;;13.03;;
6255;SDS011;3161;48.794;9.784;2024-03-08T08:17:46;21.40;;;12.60;;
6255;SDS011;3161;48.794;9.784;2024-03-08T08:20:14;21.50;;;13.00;;
6255;SDS011;3161;48.794;9.784;2024-03-08T08:22:42;20.30;;;13.27;;
6255;SDS011;3161;48.794;9.784;2024-03-08T08:25:10;20.37;;;13.03;;
6255;SDS011;3161;48.794;9.784;2024-03-08T08:27:41;19.00;;;12.77;;
6255;SDS011;3161;48.794;9.784;2024-03-08T08:30:09;23.03;;;13.80;;
6255;SDS011;3161;48.794;9.784;2024-03-08T08:32:37;21.50;;;13.23;;
6255;SDS011;3161;48.794;9.784;2024-03-08T08:35:06;19.97;;;11.93;;
6255;SDS011;3161;48.794;9.784;2024-03-08T08:37:34;27.20;;;14.27;;
6255;SDS011;3161;48.794;9.784;2024-03-08T08:40:04;19.80;;;13.50;;
6255;SDS011;3161;48.794;9.784;2024-03-08T08:42:34;19.90;;;12.97;;
6255;SDS011;3161;48.794;9.784;2024-03-08T08:45:02;21.87;;;13.33;;
6255;SDS011;3161;48.794;9.784;2024-03-08T08:47:31;23.30;;;14.63;;
6255;SDS011;3161;48.794;9.784;2024-03-08T08:49:59;23.10;;;14.57;;
6255;SDS011;3161;48.794;9.784;2024-03-08T08:52:26;21.03;;;13.63;;
6255;SDS011;3161;48.794;9.784;2024-03-08T08:54:55;22.60;;;12.37;;
6255;SDS011;3161;48.794;9.784;2024-03-08T08:57:22;24.77;;;14.33;;
6255;SDS011;3161;48.794;9.784;2024-03-08T08:59:50;22.13;;;13.77;;
6255;SDS011;3161;48.794;9.784;2024-03-08T09:02:17;20.63;;;13.30;;
6255;SDS011;3161;48.794;9.784;2024-03-08T09:04:46;20.30;;;13.00;;
6255;SDS011;3161;48.794;9.784;2024-03-08T09:07:14;23.23;;;13.67;;
6255;SDS011;3161;48.794;9.784;2024-03-08T09:09:44;21.20;;;13.03;;
6255;SDS011;3161;48.794;9.784;2024-03-08T09:12:11;18.47;;;11.97;;
6255;SDS011;3161;48.794;9.784;2024-03-08T09:14:39;20.43;;;13.00;;
6255;SDS011;3161;48.794;9.784;2024-03-08T09:17:08;20.00;;;12.90;;
6255;SDS011;3161;48.794;9.784;2024-03-08T09:19:35;18.83;;;12.20;;
6255;SDS011;3161;48.794;9.784;2024-03-08T09:22:06;25.03;;;14.53;;
6255;SDS011;3161;48.794;9.784;2024-03-08T09:24:34;24.40;;;14.80;;
6255;SDS011;3161;48.794;9.784;2024-03-08T09:27:01;24.27;;;13.83;;
6255;SDS011;3161;48.794;9.784;2024-03-08T09:29:29;22.67;;;14.70;;
6255;SDS011;3161;48.794;9.784;2024-03-08T09:31:57;23.80;;;13.77;;
6255;SDS011;3161;48.794;9.784;2024-03-08T09:34:24;23.17;;;14.00;;
6255;SDS011;3161;48.794;9.784;2024-03-08T09:36:52;23.43;;;14.23;;
6255;SDS011;3161;48.794;9.784;2024-03-08T09:39:20;20.23;;;12.67;;
6255;SDS011;3161;48.794;9.784;2024-03-08T09:41:48;23.43;;;14.57;;
6255;SDS011;3161;48.794;9.784;2024-03-08T09:44:15;19.73;;;12.60;;
6255;SDS011;3161;48.794;9.784;2024-03-08T09:46:43;24.53;;;14.13;;
6255;SDS011;3161;48.794;9.784;2024-03-08T09:49:13;22.17;;;13.53;;
6255;SDS011;3161;48.794;9.784;2024-03-08T09:51:41;22.17;;;14.20;;
6255;SDS011;3161;48.794;9.784;2024-03-08T09:54:09;22.87;;;14.23;;
6255;SDS011;3161;48.794;9.784;2024-03-08T09:56:37;20.87;;;12.50;;
6255;SDS011;3161;48.794;9.784;2024-03-08T09:59:07;20.83;;;12.10;;
6255;SDS011;3161;48.794;9.784;2024-03-08T10:01:39;24.23;;;13.53;;
6255;SDS011;3161;48.794;9.784;2024-03-08T10:04:07;22.87;;;13.33;;
6255;SDS011;3161;48.794;9.784;2024-03-08T10:06:36;25.67;;;14.43;;
6255;SDS011;3161;48.794;9.784;2024-03-08T10:09:03;18.10;;;12.00;;
6255;SDS011;3161;48.794;9.784;2024-03-08T10:11:32;27.97;;;14.03;;
6255;SDS011;3161;48.794;9.784;2024-03-08T10:14:00;25.20;;;13.83;;
6255;SDS011;3161;48.794;9.784;2024-03-08T10:16:28;23.13;;;14.27;;
6255;SDS011;3161;48.794;9.784;2024-03-08T10:18:56;24.83;;;13.47;;
6255;SDS011;3161;48.794;9.784;2024-03-08T10:21:24;22.70;;;12.90;;
6255;SDS011;3161;48.794;9.784;2024-03-08T10:23:52;25.60;;;13.67;;
6255;SDS011;3161;48.794;9.784;2024-03-08T10:26:20;26.23;;;14.10;;
6255;SDS011;3161;48.794;9.784;2024-03-08T10:28:48;21.70;;;13.63;;
6255;SDS011;3161;48.794;9.784;2024-03-08T10:31:18;22.00;;;13.93;;
6255;SDS011;3161;48.794;9.784;2024-03-08T10:33:46;26.17;;;13.57;;
6255;SDS011;3161;48.794;9.784;2024-03-08T10:36:15;23.47;;;13.30;;
6255;SDS011;3161;48.794;9.784;2024-03-08T10:38:43;24.87;;;13.97;;
6255;SDS011;3161;48.794;9.784;2024-03-08T10:41:12;24.73;;;13.93;;
6255;SDS011;3161;48.794;9.784;2024-03-08T10:46:39;20.57;;;13.03;;
6255;SDS011;3161;48.794;9.784;2024-03-08T10:49:17;22.00;;;13.10;;
6255;SDS011;3161;48.794;9.784;2024-03-08T10:51:46;20.07;;;13.37;;
6255;SDS011;3161;48.794;9.784;2024-03-08T10:54:15;22.83;;;14.17;;
6255;SDS011;3161;48.794;9.784;2024-03-08T10:56:43;25.67;;;15.80;;
6255;SDS011;3161;48.794;9.784;2024-03-08T10:59:11;30.00;;;15.50;;
6255;SDS011;3161;48.794;9.784;2024-03-08T11:01:39;20.37;;;13.10;;
6255;SDS011;3161;48.794;9.784;2024-03-08T11:04:07;20.43;;;13.10;;
6255;SDS011;3161;48.794;9.784;2024-03-08T11:09:27;23.20;;;14.40;;
6255;SDS011;3161;48.794;9.784;2024-03-08T11:14:49;21.97;;;13.73;;
6255;SDS011;3161;48.794;9.784;2024-03-08T11:17:39;21.30;;;12.73;;
6255;SDS011;3161;48.794;9.784;2024-03-08T11:19:58;20.00;;;13.10;;
6255;SDS011;3161;48.794;9.784;2024-03-08T11:22:28;18.87;;;12.80;;
6255;SDS011;3161;48.794;9.784;2024-03-08T11:25:03;23.50;;;13.03;;
6255;SDS011;3161;48.794;9.784;2024-03-08T11:27:35;22.70;;;13.77;;
6255;SDS011;3161;48.794;9.784;2024-03-08T11:30:04;21.23;;;13.53;;
6255;SDS011;3161;48.794;9.784;2024-03-08T11:32:44;18.33;;;12.20;;
6255;SDS011;3161;48.794;9.784;2024-03-08T11:35:20;21.43;;;12.40;;
6255;SDS011;3161;48.794;9.784;2024-03-08T11:37:51;18.13;;;12.07;;
6255;SDS011;3161;48.794;9.784;2024-03-08T11:40:19;20.27;;;13.43;;
6255;SDS011;3161;48.794;9.784;2024-03-08T11:42:48;21.07;;;13.20;;
6255;SDS011;3161;48.794;9.784;2024-03-08T11:45:17;18.03;;;12.10;;
6255;SDS011;3161;48.794;9.784;2024-03-08T11:47:47;17.30;;;12.10;;
6255;SDS011;3161;48.794;9.784;2024-03-08T11:50:14;23.37;;;14.33;;
6255;SDS011;3161;48.794;9.784;2024-03-08T11:52:44;22.10;;;12.73;;
6255;SDS011;3161;48.794;9.784;2024-03-08T11:55:12;21.50;;;13.47;;
6255;SDS011;3161;48.794;9.784;2024-03-08T11:57:39;20.60;;;12.67;;
6255;SDS011;3161;48.794;9.784;2024-03-08T12:00:14;18.37;;;12.43;;
6255;SDS011;3161;48.794;9.784;2024-03-08T12:03:01;19.47;;;13.33;;
6255;SDS011;3161;48.794;9.784;2024-03-08T12:05:29;19.27;;;13.20;;
6255;SDS011;3161;48.794;9.784;2024-03-08T12:08:00;25.57;;;15.07;;
6255;SDS011;3161;48.794;9.784;2024-03-08T12:10:35;18.83;;;12.90;;
6255;SDS011;3161;48.794;9.784;2024-03-08T12:13:03;21.17;;;13.53;;
6255;SDS011;3161;48.794;9.784;2024-03-08T12:15:35;21.73;;;12.23;;
6255;SDS011;3161;48.794;9.784;2024-03-08T12:18:03;20.00;;;12.53;;
6255;SDS011;3161;48.794;9.784;2024-03-08T12:20:30;19.90;;;13.13;;
6255;SDS011;3161;48.794;9.784;2024-03-08T12:22:58;19.83;;;11.63;;
6255;SDS011;3161;48.794;9.784;2024-03-08T12:25:27;20.50;;;13.27;;
6255;SDS011;3161;48.794;9.784;2024-03-08T12:28:06;17.97;;;12.67;;
6255;SDS011;3161;48.794;9.784;2024-03-08T12:30:47;19.30;;;13.30;;
6255;SDS011;3161;48.794;9.784;2024-03-08T12:33:18;20.07;;;12.73;;
6255;SDS011;3161;48.794;9.784;2024-03-08T12:35:52;18.20;;;12.57;;
6255;SDS011;3161;48.794;9.784;2024-03-08T12:38:24;18.27;;;12.77;;
6255;SDS011;3161;48.794;9.784;2024-03-08T12:41:00;17.17;;;11.53;;
6255;SDS011;3161;48.794;9.784;2024-03-08T12:43:28;18.87;;;11.97;;
6255;SDS011;3161;48.794;9.784;2024-03-08T12:45:57;17.67;;;12.93;;
6255;SDS011;3161;48.794;9.784;2024-03-08T12:48:25;15.13;;;12.00;;
6255;SDS011;3161;48.794;9.784;2024-03-08T12:50:52;15.90;;;11.63;;
6255;SDS011;3161;48.794;9.784;2024-03-08T12:53:20;18.83;;;11.13;;
6255;SDS011;3161;48.794;9.784;2024-03-08T12:55:49;16.13;;;11.43;;
6255;SDS011;3161;48.794;9.784;2024-03-08T12:58:16;14.73;;;10.77;;
6255;SDS011;3161;48.794;9.784;2024-03-08T13:00:45;19.90;;;12.07;;
6255;SDS011;3161;48.794;9.784;2024-03-08T13:03:14;15.60;;;10.93;;
6255;SDS011;3161;48.794;9.784;2024-03-08T13:05:42;14.77;;;10.93;;
6255;SDS011;3161;48.794;9.784;2024-03-08T13:08:11;14.13;;;10.90;;
6255;SDS011;3161;48.794;9.784;2024-03-08T13:10:39;20.60;;;11.40;;
6255;SDS011;3161;48.794;9.784;2024-03-08T13:13:09;14.33;;;10.73;;
6255;SDS011;3161;48.794;9.784;2024-03-08T13:15:40;15.20;;;11.27;;
6255;SDS011;3161;48.794;9.784;2024-03-08T13:18:08;14.63;;;11.40;;
6255;SDS011;3161;48.794;9.784;2024-03-08T13:20:36;14.30;;;10.82;;
6255;SDS011;3161;48.794;9.784;2024-03-08T13:23:04;15.72;;;10.90;;
6255;SDS011;3161;48.794;9.784;2024-03-08T13:25:32;13.50;;;9.78;;
6255;SDS011;3161;48.794;9.784;2024-03-08T13:28:00;13.93;;;9.90;;
6255;SDS011;3161;48.794;9.784;2024-03-08T13:30:28;19.48;;;9.65;;
6255;SDS011;3161;48.794;9.784;2024-03-08T13:32:56;14.53;;;10.63;;
6255;SDS011;3161;48.794;9.784;2024-03-08T13:35:24;13.88;;;10.68;;
6255;SDS011;3161;48.794;9.784;2024-03-08T13:37:53;13.83;;;10.93;;
6255;SDS011;3161;48.794;9.784;2024-03-08T13:40:20;15.55;;;10.78;;
6255;SDS011;3161;48.794;9.784;2024-03-08T13:42:48;12.60;;;10.03;;
6255;SDS011;3161;48.794;9.784;2024-03-08T13:45:16;11.75;;;9.83;;
6255;SDS011;3161;48.794;9.784;2024-03-08T13:47:45;12.47;;;9.98;;
6255;SDS011;3161;48.794;9.784;2024-03-08T13:50:13;14.28;;;9.73;;
6255;SDS011;3161;48.794;9.784;2024-03-08T13:52:42;16.50;;;9.93;;
6255;SDS011;3161;48.794;9.784;2024-03-08T13:55:10;12.77;;;9.80;;
6255;SDS011;3161;48.794;9.784;2024-03-08T13:57:38;12.77;;;9.57;;
6255;SDS011;3161;48.794;9.784;2024-03-08T14:00:06;13.27;;;10.33;;
6255;SDS011;3161;48.794;9.784;2024-03-08T14:02:34;14.73;;;10.23;;
6255;SDS011;3161;48.794;9.784;2024-03-08T14:05:02;13.77;;;9.57;;
6255;SDS011;3161;48.794;9.784;2024-03-08T14:07:29;14.73;;;10.00;;
6255;SDS011;3161;48.794;9.784;2024-03-08T14:09:57;13.90;;;10.60;;
6255;SDS011;3161;48.794;9.784;2024-03-08T14:12:25;15.77;;;11.20;;
6255;SDS011;3161;48.794;9.784;2024-03-08T14:14:53;14.83;;;10.20;;
6255;SDS011;3161;48.794;9.784;2024-03-08T14:17:20;16.53;;;11.43;;
6255;SDS011;3161;48.794;9.784;2024-03-08T14:19:49;14.30;;;11.20;;
6255;SDS011;3161;48.794;9.784;2024-03-08T14:22:16;14.33;;;10.43;;
6255;SDS011;3161;48.794;9.784;2024-03-08T14:24:44;14.27;;;10.63;;
6255;SDS011;3161;48.794;9.784;2024-03-08T14:27:11;15.10;;;10.43;;
6255;SDS011;3161;48.794;9.784;2024-03-08T14:29:40;13.27;;;9.33;;
6255;SDS011;3161;48.794;9.784;2024-03-08T14:32:09;15.07;;;10.47;;
6255;SDS011;3161;48.794;9.784;2024-03-08T14:34:38;12.77;;;10.20;;
6255;SDS011;3161;48.794;9.784;2024-03-08T14:37:06;17.10;;;10.90;;
6255;SDS011;3161;48.794;9.784;2024-03-08T14:39:35;11.30;;;9.43;;
6255;SDS011;3161;48.794;9.784;2024-03-08T14:42:03;12.47;;;9.03;;
6255;SDS011;3161;48.794;9.784;2024-03-08T14:44:32;11.50;;;9.20;;
6255;SDS011;3161;48.794;9.784;2024-03-08T14:46:59;12.17;;;8.73;;
6255;SDS011;3161;48.794;9.784;2024-03-08T14:49:27;11.08;;;8.55;;
6255;SDS011;3161;48.794;9.784;2024-03-08T14:54:46;12.67;;;8.97;;
6255;SDS011;3161;48.794;9.784;2024-03-08T14:57:14;13.10;;;8.85;;
6255;SDS011;3161;48.794;9.784;2024-03-08T14:59:41;11.15;;;9.00;;
6255;SDS011;3161;48.794;9.784;2024-03-08T15:02:10;12.23;;;8.23;;
6255;SDS011;3161;48.794;9.784;2024-03-08T15:04:38;12.10;;;8.73;;
6255;SDS011;3161;48.794;9.784;2024-03-08T15:07:07;13.68;;;8.65;;
6255;SDS011;3161;48.794;9.784;2024-03-08T15:09:35;9.20;;;7.70;;